Time;durP1;ratioP1;P1;durP2;ratioP2;P2;SDS_P1;SDS_P2;PMS_P1;PMS_P2;Temp;Humidity;BMP_temperature;BMP_pressure;BME280_temperature;BME280_humidity;BME280_pressure;Samples;Min_cycle;Max_cycle;Signal;HPM_P1;HPM_P2
2022/06/04 00:00:39;;;;;;;5.70;3.53;;;;;;;14.17;70.46;100053.88;5012477;28;20384;-63
2022/06/04 00:03:06;;;;;;;5.15;3.65;;;;;;;14.17;71.93;100047.84;5011672;28;20080;-63
2022/06/04 00:05:34;;;;;;;4.53;3.90;;;;;;;14.06;71.68;100058.56;5011380;28;20029;-63
2022/06/04 00:08:02;;;;;;;6.78;3.95;;;;;;;13.99;71.35;100029.25;5012205;28;20068;-63
2022/06/04 00:16:02;;;;;;;7.65;3.70;;;;;;;14.06;71.43;100058.56;5011955;28;20042;-63
2022/06/04 00:18:28;;;;;;;5.25;3.38;;;;;;;14.02;70.74;100054.34;5011954;28;20450;-62
2022/06/04 00:20:55;;;;;;;6.18;3.65;;;;;;;13.72;70.05;99997.91;5012499;28;20030;-63
2022/06/04 00:23:22;;;;;;;8.77;3.42;;;;;;;14.05;71.08;100059.44;5012106;28;20026;-63
2022/06/04 00:25:52;;;;;;;5.07;3.53;;;;;;;13.65;71.14;100004.19;5012650;28;20065;-64
2022/06/04 00:28:20;;;;;;;6.10;3.42;;;;;;;14.01;71.88;100058.72;5012150;28;20028;-64
2022/06/04 00:30:46;;;;;;;5.28;3.28;;;;;;;13.93;70.24;100058.91;5011925;28;20088;-64
2022/06/04 00:33:13;;;;;;;9.35;3.95;;;;;;;13.95;70.35;100053.66;5011890;28;20037;-64
2022/06/04 00:35:40;;;;;;;8.20;3.58;;;;;;;13.88;70.66;100046.94;5011789;28;20033;-63
2022/06/04 00:38:06;;;;;;;6.85;3.00;;;;;;;13.92;70.94;100048.53;5009019;28;20044;-63
2022/06/04 00:40:41;;;;;;;8.25;3.65;;;;;;;13.92;70.31;100051.16;5010545;28;20036;-63
2022/06/04 00:43:06;;;;;;;6.47;3.17;;;;;;;13.91;70.21;100052.03;5007361;28;20022;-63
2022/06/04 00:45:32;;;;;;;6.80;3.55;;;;;;;13.89;70.05;100048.66;5010915;28;20368;-63
2022/06/04 00:47:59;;;;;;;7.03;3.63;;;;;;;13.90;70.82;100056.41;4997540;28;20113;-62
2022/06/04 00:50:28;;;;;;;6.93;3.88;;;;;;;13.57;70.98;99991.41;5013343;28;20101;-62
2022/06/04 00:52:55;;;;;;;5.05;3.53;;;;;;;13.90;71.29;100053.81;5015817;28;20026;-62
2022/06/04 00:55:22;;;;;;;4.95;3.50;;;;;;;13.87;70.88;100053.91;5014894;28;20030;-62
2022/06/04 00:57:50;;;;;;;4.22;3.50;;;;;;;13.86;70.82;100052.19;5015842;28;20039;-63
2022/06/04 01:00:22;;;;;;;4.63;3.40;;;;;;;13.83;71.44;100054.03;5014157;28;20513;-62
2022/06/04 01:02:56;;;;;;;;;;;;;;;13.79;71.11;100054.09;5016054;28;20534;-63
2022/06/04 01:05:59;;;;;;;4.82;3.17;;;;;;;13.77;70.79;100058.50;5015615;28;19964;-62
2022/06/04 01:08:55;;;;;;;4.30;3.83;;;;;;;13.75;70.49;100057.72;5015583;28;20038;-64
2022/06/04 01:12:27;;;;;;;6.38;3.35;;;;;;;13.74;70.49;100056.00;5014364;28;20101;-63
2022/06/04 01:14:54;;;;;;;6.47;3.33;;;;;;;13.60;71.91;100037.31;5001215;28;20072;-63
2022/06/04 01:17:42;;;;;;;6.03;3.33;;;;;;;13.71;70.43;100065.63;5010659;28;20026;-64
2022/06/04 01:20:18;;;;;;;5.97;3.30;;;;;;;13.62;72.43;100067.63;5014776;28;20060;-63
2022/06/04 01:23:02;;;;;;;7.05;3.42;;;;;;;13.61;71.67;100072.84;5015238;28;20387;-63
2022/06/04 01:26:20;;;;;;;6.65;3.22;;;;;;;13.29;71.55;100012.13;5014961;28;20034;-63
2022/06/04 01:29:11;;;;;;;4.63;3.05;;;;;;;13.50;71.39;100054.09;5004935;28;20034;-63
2022/06/04 01:31:47;;;;;;;5.75;3.10;;;;;;;13.36;72.83;100023.25;5015075;28;20034;-62
2022/06/04 01:34:16;;;;;;;3.72;3.30;;;;;;;13.61;72.11;100075.44;5015009;28;20034;-63
2022/06/04 01:36:55;;;;;;;4.90;3.67;;;;;;;13.64;72.21;100075.38;5013300;28;20479;-63
2022/06/04 01:39:25;;;;;;;6.20;3.28;;;;;;;13.41;73.01;100036.97;5014502;28;20032;-63
2022/06/04 01:42:02;;;;;;;5.82;3.30;;;;;;;13.27;72.26;100017.38;5015005;28;20034;-63
2022/06/04 01:44:36;;;;;;;4.15;3.75;;;;;;;13.34;73.26;100023.25;5014840;28;20382;-63
2022/06/04 01:47:05;;;;;;;7.70;3.58;;;;;;;13.60;72.54;100072.00;5013587;28;20029;-62
2022/06/04 01:49:45;;;;;;;6.22;3.50;;;;;;;13.64;73.41;100070.19;5014573;28;20030;-63
2022/06/04 01:52:19;;;;;;;5.15;3.42;;;;;;;13.62;72.50;100079.75;5013403;28;20026;-63
2022/06/04 01:54:49;;;;;;;8.98;3.60;;;;;;;13.40;71.60;100051.72;5013971;28;20025;-63
2022/06/04 01:57:27;;;;;;;4.32;3.05;;;;;;;13.68;71.70;100079.63;5014530;28;20080;-63
2022/06/04 01:59:58;;;;;;;10.13;3.20;;;;;;;13.70;72.20;100049.16;5014311;28;20033;-64
2022/06/04 02:02:52;;;;;;;9.50;3.30;;;;;;;13.52;70.86;100023.66;5014648;28;20049;-63
2022/06/04 02:05:23;;;;;;;6.30;3.47;;;;;;;13.56;71.90;100036.53;5014668;28;20058;-63
2022/06/04 02:07:52;;;;;;;6.20;3.20;;;;;;;13.91;71.38;100075.47;5014372;28;20100;-62
2022/06/04 02:10:47;;;;;;;3.60;2.97;;;;;;;13.90;70.33;100077.22;5014590;28;20038;-63
2022/06/04 02:13:15;;;;;;;6.05;2.88;;;;;;;13.69;70.01;100023.19;5014411;28;20529;-63
2022/06/04 02:16:19;;;;;;;7.60;3.42;;;;;;;14.12;70.17;100074.88;5014183;28;20108;-63
2022/06/04 02:18:44;;;;;;;5.78;3.17;;;;;;;14.13;71.16;100083.53;5005028;28;20495;-62
2022/06/04 02:21:10;;;;;;;5.60;3.35;;;;;;;14.16;70.74;100083.44;5014191;28;20025;-64
2022/06/04 02:23:36;;;;;;;4.65;3.42;;;;;;;14.11;70.95;100069.72;5014211;28;20030;-64
2022/06/04 02:26:02;;;;;;;5.18;2.70;;;;;;;14.22;70.24;100093.66;5013916;28;20379;-63
2022/06/04 02:28:28;;;;;;;10.23;4.22;;;;;;;14.18;69.61;100079.03;5013767;28;20688;-63
2022/06/04 02:31:32;;;;;;;7.68;3.78;;;;;;;14.31;68.70;100092.56;5014166;28;20030;-63
2022/06/04 02:34:23;;;;;;;6.38;3.40;;;;;;;14.32;68.53;100092.50;4980931;28;20479;-63
2022/06/04 02:37:02;;;;;;;4.97;3.08;;;;;;;14.01;68.82;100037.88;5001471;28;20096;-63
2022/06/04 02:39:46;;;;;;;8.75;4.90;;;;;;;14.06;69.30;100030.75;5013887;28;20568;-64
2022/06/04 02:42:44;;;;;;;4.88;3.90;;;;;;;14.49;68.31;100101.53;5013037;28;20026;-62
2022/06/04 02:45:27;;;;;;;8.93;5.10;;;;;;;14.20;68.17;100042.53;5013445;28;20034;-62
2022/06/04 02:48:18;;;;;;;5.88;3.42;;;;;;;14.36;67.23;100051.56;5013695;28;20030;-62
2022/06/04 02:50:49;;;;;;;5.60;3.38;;;;;;;14.63;67.94;100093.31;5011983;28;20470;-63
2022/06/04 02:53:17;;;;;;;7.15;3.08;;;;;;;14.69;67.28;100087.91;5012723;28;20089;-63
2022/06/04 02:55:50;;;;;;;5.95;3.75;;;;;;;14.69;67.62;100094.88;5008607;28;20112;-63
2022/06/04 02:58:19;;;;;;;4.80;3.63;;;;;;;14.42;68.31;100050.50;5013504;28;20038;-62
2022/06/04 03:00:48;;;;;;;4.93;3.00;;;;;;;14.72;67.72;100092.19;5013505;28;20025;-62
2022/06/04 03:03:14;;;;;;;6.68;3.45;;;;;;;14.80;68.51;100093.63;5013175;28;20058;-63
2022/06/04 03:05:53;;;;;;;4.38;2.97;;;;;;;14.86;67.53;100100.41;5012375;28;20032;-62
2022/06/04 03:08:19;;;;;;;6.63;3.55;;;;;;;14.79;67.37;100094.56;5012766;28;20123;-62
2022/06/04 03:10:45;;;;;;;6.70;3.25;;;;;;;14.90;67.39;100096.81;5011736;28;20344;-64
2022/06/04 03:13:10;;;;;;;6.60;3.08;;;;;;;14.95;67.20;100100.13;5012369;28;20088;-64
2022/06/04 03:15:36;;;;;;;4.18;3.20;;;;;;;15.06;67.13;100094.53;5012183;28;20430;-64
2022/06/04 03:18:01;;;;;;;5.43;2.80;;;;;;;15.10;66.24;100092.69;5012440;28;20029;-64
2022/06/04 03:20:27;;;;;;;4.65;2.90;;;;;;;15.02;65.57;100069.44;5012597;28;20418;-64
2022/06/04 03:22:53;;;;;;;6.03;3.10;;;;;;;15.34;65.98;100091.84;5027193;28;20036;-64
2022/06/04 03:25:20;;;;;;;6.18;2.90;;;;;;;15.62;64.52;100098.72;5010241;28;20403;-64
2022/06/04 03:27:46;;;;;;;2.80;2.60;;;;;;;15.95;63.62;100094.97;5012266;28;20022;-64
2022/06/04 03:30:13;;;;;;;4.78;2.80;;;;;;;16.13;62.75;100098.66;5011855;28;20018;-64
2022/06/04 03:32:39;;;;;;;4.50;2.80;;;;;;;16.45;62.43;100104.41;5012394;28;20387;-64
2022/06/04 03:35:05;;;;;;;4.47;2.80;;;;;;;16.58;nan;100103.00;5011536;28;20075;-64
2022/06/04 03:37:30;;;;;;;4.40;3.05;;;;;;;16.67;61.53;100113.09;5011918;28;20057;-64
2022/06/04 03:39:56;;;;;;;2.58;2.28;;;;;;;16.60;61.16;100106.41;5012298;28;20070;-64
2022/06/04 03:42:21;;;;;;;5.78;2.60;;;;;;;16.48;62.33;100093.84;5001229;28;20022;-63
2022/06/04 03:44:47;;;;;;;4.53;2.58;;;;;;;16.51;62.61;100107.63;5011913;28;20065;-63
2022/06/04 03:47:18;;;;;;;4.07;2.60;;;;;;;16.44;62.60;100107.94;5011839;28;20435;-63
2022/06/04 03:49:44;;;;;;;2.90;2.60;;;;;;;16.45;62.49;100109.66;5011673;28;20468;-64
2022/06/04 03:52:11;;;;;;;4.03;3.10;;;;;;;16.46;63.08;100104.34;5010513;28;20501;-63
2022/06/04 03:54:52;;;;;;;7.25;2.95;;;;;;;16.42;63.08;100113.22;5011461;28;20387;-63
2022/06/04 04:00:06;;;;;;;4.93;2.80;;;;;;;16.07;61.19;100044.00;5011456;28;20061;-63
2022/06/04 04:02:33;;;;;;;7.30;2.83;;;;;;;16.46;61.78;100101.75;5011535;28;20033;-63
2022/06/04 04:04:59;;;;;;;7.32;2.97;;;;;;;16.44;62.50;100107.94;4970292;28;1207529;-63
2022/06/04 04:07:25;;;;;;;6.50;3.45;;;;;;;16.47;62.95;100102.56;5010746;28;20034;-63
2022/06/04 04:09:51;;;;;;;8.23;2.75;;;;;;;16.47;63.42;100103.41;5012160;28;20092;-63
2022/06/04 04:12:16;;;;;;;7.75;2.95;;;;;;;16.42;62.32;100107.13;5010802;28;20029;-63
2022/06/04 04:14:42;;;;;;;6.38;2.80;;;;;;;16.42;62.52;100105.38;5010309;28;20070;-64
2022/06/04 04:17:09;;;;;;;6.18;3.17;;;;;;;16.48;62.30;100112.13;5012313;28;20044;-63
2022/06/04 04:19:35;;;;;;;3.72;2.78;;;;;;;16.53;62.48;100110.16;5012018;28;20054;-63
2022/06/04 04:22:01;;;;;;;5.05;2.78;;;;;;;16.53;62.13;100112.78;5011792;28;20340;-64
2022/06/04 04:24:26;;;;;;;7.53;2.83;;;;;;;16.45;61.84;100107.03;5011467;28;20387;-63
2022/06/04 04:26:53;;;;;;;3.10;2.50;;;;;;;16.63;62.42;100108.06;5012118;28;20140;-63
2022/06/04 04:29:18;;;;;;;5.15;2.85;;;;;;;16.73;62.16;100106.75;5012381;28;20088;-63
2022/06/04 04:31:44;;;;;;;4.05;2.95;;;;;;;16.70;63.34;100099.91;5011647;28;20391;-64
2022/06/04 04:34:09;;;;;;;5.95;2.70;;;;;;;16.73;64.36;100104.16;5012142;28;20546;-64
2022/06/04 04:36:35;;;;;;;5.88;2.35;;;;;;;16.73;61.81;100118.09;5011759;28;20502;-64
2022/06/04 04:39:00;;;;;;;4.85;2.60;;;;;;;16.84;60.70;100104.56;5011710;28;20033;-63
2022/06/04 04:41:26;;;;;;;4.15;2.40;;;;;;;16.84;60.81;100098.50;5011841;28;20466;-63
2022/06/04 04:43:52;;;;;;;3.15;2.60;;;;;;;16.86;60.43;100101.88;5011765;28;20502;-63
2022/06/04 04:46:18;;;;;;;4.72;2.38;;;;;;;16.95;60.96;100109.41;5011565;28;20494;-63
2022/06/04 04:48:46;;;;;;;3.80;2.90;;;;;;;17.00;60.29;100102.22;5011168;28;20036;-64
2022/06/04 04:51:21;;;;;;;5.25;2.90;;;;;;;17.05;59.56;100099.41;5010356;28;20030;-63
2022/06/04 04:53:48;;;;;;;2.83;2.25;;;;;;;17.18;59.38;100112.84;5011922;28;20033;-63
2022/06/04 04:56:15;;;;;;;6.80;2.60;;;;;;;17.33;60.56;100112.19;5011802;28;20494;-63
2022/06/04 04:58:41;;;;;;;5.85;2.65;;;;;;;17.35;60.55;100109.50;5011912;28;20076;-63
2022/06/04 05:01:14;;;;;;;4.88;2.70;;;;;;;17.13;59.72;100057.19;5011751;28;20042;-63
2022/06/04 05:03:40;;;;;;;6.10;2.70;;;;;;;17.56;59.17;100103.34;5011539;28;20070;-63
2022/06/04 05:06:05;;;;;;;3.95;2.80;;;;;;;17.68;59.08;100107.19;5011723;28;20073;-63
2022/06/04 05:08:31;;;;;;;5.63;2.53;;;;;;;18.00;57.91;100111.94;5011746;28;20062;-63
2022/06/04 05:11:09;;;;;;;4.38;2.38;;;;;;;18.02;57.52;100107.47;5011265;28;20061;-63
2022/06/04 05:13:35;;;;;;;4.63;2.05;;;;;;;18.07;57.47;100102.84;5011754;28;20046;-63
2022/06/04 05:16:00;;;;;;;5.28;2.60;;;;;;;18.40;57.43;100110.94;5011423;28;20512;-63
2022/06/04 05:18:26;;;;;;;3.38;2.20;;;;;;;18.56;55.28;100111.06;5011830;28;20030;-63
2022/06/04 05:20:51;;;;;;;6.93;2.35;;;;;;;18.53;55.73;100116.47;5009571;28;20415;-63
2022/06/04 05:23:17;;;;;;;5.28;2.60;;;;;;;18.57;56.51;100112.78;5011368;28;20034;-63
2022/06/04 05:25:44;;;;;;;6.22;2.53;;;;;;;18.68;57.08;100120.13;5011666;28;20777;-63
2022/06/04 05:28:10;;;;;;;5.72;2.45;;;;;;;18.53;55.10;100113.00;5011476;28;20145;-63
2022/06/04 05:30:35;;;;;;;4.22;2.13;;;;;;;18.49;55.48;100106.19;5011645;28;20113;-63
2022/06/04 05:33:01;;;;;;;4.80;2.30;;;;;;;18.63;55.51;100117.72;5011295;28;20471;-63
2022/06/04 05:35:27;;;;;;;7.32;2.40;;;;;;;18.74;55.80;100117.22;5014357;28;20076;-63
2022/06/04 05:37:52;;;;;;;4.40;2.25;;;;;;;18.61;56.22;100124.81;5014726;28;20117;-64
2022/06/04 05:40:18;;;;;;;2.78;1.98;;;;;;;18.60;54.10;100117.03;5014361;28;20099;-64
2022/06/04 05:42:43;;;;;;;4.18;2.38;;;;;;;18.77;55.16;100114.44;5014689;28;20061;-64
2022/06/04 05:45:09;;;;;;;3.88;2.58;;;;;;;18.86;54.16;100115.75;5014871;28;20037;-63
2022/06/04 05:47:36;;;;;;;4.57;2.20;;;;;;;18.83;54.38;100117.69;5014867;28;20044;-64
2022/06/04 05:50:02;;;;;;;3.25;2.55;;;;;;;18.96;54.30;100108.31;5013940;28;20109;-64
2022/06/04 05:52:28;;;;;;;5.55;2.40;;;;;;;19.10;53.55;100116.34;5013410;28;20402;-63
2022/06/04 05:54:54;;;;;;;7.35;2.85;;;;;;;19.07;54.28;100111.25;5007320;28;20030;-65
2022/06/04 05:57:20;;;;;;;3.83;3.00;;;;;;;19.18;53.62;100115.13;5014494;28;20525;-64
2022/06/04 05:59:45;;;;;;;6.10;2.75;;;;;;;19.20;54.49;100113.28;5014779;28;20033;-64
2022/06/04 06:02:11;;;;;;;3.65;2.70;;;;;;;19.28;52.97;100106.69;5014521;28;20018;-64
2022/06/04 06:04:37;;;;;;;5.75;2.50;;;;;;;19.21;52.41;100110.56;5014162;28;20057;-64
2022/06/04 06:07:03;;;;;;;3.53;2.50;;;;;;;19.31;54.48;100106.53;5014004;28;20399;-63
2022/06/04 06:09:28;;;;;;;2.88;2.30;;;;;;;19.28;52.58;100103.22;5011222;28;20037;-64
2022/06/04 06:11:55;;;;;;;5.70;2.47;;;;;;;19.37;52.87;100105.38;5014439;28;20029;-64
2022/06/04 06:14:22;;;;;;;5.15;2.10;;;;;;;19.37;51.06;100108.00;5013981;28;20076;-65
2022/06/04 06:16:49;;;;;;;3.00;2.10;;;;;;;19.40;51.51;100101.75;5013586;28;20109;-64
2022/06/04 06:19:16;;;;;;;2.47;2.00;;;;;;;19.36;50.97;100108.94;5009929;28;20042;-64
2022/06/04 06:21:42;;;;;;;3.25;2.00;;;;;;;19.31;51.84;100105.69;5004404;28;20117;-64
2022/06/04 06:24:10;;;;;;;4.20;2.30;;;;;;;19.48;52.86;100102.19;5025234;28;20110;-65
2022/06/04 06:26:45;;;;;;;2.10;1.90;;;;;;;19.49;50.70;100094.22;5012626;28;20045;-64
2022/06/04 06:29:12;;;;;;;3.88;1.70;;;;;;;19.61;52.96;100100.63;5010521;28;20108;-64
2022/06/04 06:31:37;;;;;;;4.28;2.30;;;;;;;19.51;52.43;100098.56;5012579;28;20022;-65
2022/06/04 06:34:03;;;;;;;3.70;1.80;;;;;;;19.50;51.60;100102.97;5012480;28;20476;-65
2022/06/04 06:36:29;;;;;;;4.57;1.88;;;;;;;19.46;49.35;100097.00;5009912;28;20694;-65
2022/06/04 06:38:55;;;;;;;3.05;2.00;;;;;;;19.29;49.42;100089.16;5012282;28;20395;-65
2022/06/04 06:41:23;;;;;;;3.53;1.98;;;;;;;19.22;49.47;100041.34;5012696;28;20025;-64
2022/06/04 06:43:50;;;;;;;2.40;1.85;;;;;;;19.43;48.83;100089.28;5009599;28;20037;-63
2022/06/04 06:46:18;;;;;;;2.30;1.70;;;;;;;19.52;49.96;100082.72;5011064;28;20542;-65
2022/06/04 06:48:45;;;;;;;2.15;1.83;;;;;;;19.34;50.44;100041.63;5009669;28;20059;-64
2022/06/04 06:51:17;;;;;;;5.05;1.90;;;;;;;19.45;50.54;100050.69;5012445;28;20017;-64
2022/06/04 06:53:42;;;;;;;3.08;1.90;;;;;;;19.75;50.67;100092.03;5009507;28;20060;-64
2022/06/04 06:56:12;;;;;;;5.15;2.08;;;;;;;19.90;50.01;100085.13;5012524;28;20065;-63
2022/06/04 06:58:38;;;;;;;2.70;2.00;;;;;;;19.94;51.52;100091.06;5013296;28;20028;-64
2022/06/04 07:01:05;;;;;;;2.67;2.00;;;;;;;19.94;51.27;100085.81;5012767;28;20026;-64
2022/06/04 07:03:31;;;;;;;2.72;2.10;;;;;;;19.92;50.59;100092.91;5012546;28;20077;-64
2022/06/04 07:05:56;;;;;;;3.72;2.10;;;;;;;20.05;52.09;100083.47;5013223;28;20109;-64
2022/06/04 07:08:22;;;;;;;4.60;2.22;;;;;;;20.14;50.80;100090.81;5013431;28;20088;-63
2022/06/04 07:10:48;;;;;;;4.03;2.15;;;;;;;20.21;51.06;100093.09;5013015;28;20426;-64
2022/06/04 07:13:14;;;;;;;4.55;2.20;;;;;;;20.34;51.89;100094.97;5013552;28;20025;-63
2022/06/04 07:15:41;;;;;;;3.20;2.30;;;;;;;20.27;50.35;100093.63;5011778;28;20061;-63
2022/06/04 07:18:11;;;;;;;2.50;2.20;;;;;;;20.33;49.53;100085.38;5012455;28;20036;-63
2022/06/04 07:20:37;;;;;;;6.18;2.28;;;;;;;20.32;49.20;100096.88;5009053;28;20109;-64
2022/06/04 07:23:03;;;;;;;5.32;2.63;;;;;;;20.46;50.21;100082.09;5011273;28;20472;-64
2022/06/04 07:25:29;;;;;;;6.10;1.95;;;;;;;20.31;50.55;100091.69;5012607;28;20038;-64
2022/06/04 07:27:54;;;;;;;3.92;2.17;;;;;;;20.28;49.26;100079.56;5009552;28;20030;-65
2022/06/04 07:30:20;;;;;;;2.95;1.50;;;;;;;20.42;48.96;100091.06;5006131;28;20018;-65
2022/06/04 07:32:45;;;;;;;1.92;1.80;;;;;;;20.59;49.51;100085.69;5011452;28;20034;-65
2022/06/04 07:35:11;;;;;;;2.95;2.00;;;;;;;20.21;50.43;100078.19;5008253;28;20025;-65
2022/06/04 07:37:36;;;;;;;3.15;2.00;;;;;;;20.36;49.42;100081.75;5009996;28;20515;-65
2022/06/04 07:40:03;;;;;;;3.60;1.95;;;;;;;20.45;50.13;100081.25;5012079;28;20032;-65
2022/06/04 07:42:29;;;;;;;2.65;2.30;;;;;;;20.36;49.79;100087.00;5009532;28;20026;-65
2022/06/04 07:44:55;;;;;;;5.47;2.28;;;;;;;20.11;51.20;100072.59;5012479;28;20024;-65
2022/06/04 07:47:21;;;;;;;3.95;2.45;;;;;;;20.17;52.05;100093.28;5007390;28;20068;-63
2022/06/04 07:49:46;;;;;;;2.58;2.10;;;;;;;20.11;51.19;100079.59;5009519;28;20189;-64
2022/06/04 07:52:12;;;;;;;4.20;2.35;;;;;;;20.22;50.48;100076.41;5009272;28;20014;-65
2022/06/04 07:54:39;;;;;;;3.10;2.25;;;;;;;20.35;49.93;100077.41;5011585;28;20022;-63
2022/06/04 07:57:04;;;;;;;5.10;2.20;;;;;;;20.39;50.27;100073.66;5011736;28;20478;-65
2022/06/04 07:59:30;;;;;;;6.05;2.00;;;;;;;20.40;50.00;100070.13;5011942;28;20040;-64
2022/06/04 08:01:56;;;;;;;5.18;2.60;;;;;;;20.58;50.10;100070.00;5009311;28;20013;-64
2022/06/04 08:04:22;;;;;;;2.72;2.13;;;;;;;20.64;50.39;100067.03;5012329;28;20061;-64
2022/06/04 08:06:47;;;;;;;5.65;2.35;;;;;;;20.74;49.22;100065.59;5012064;28;20073;-64
2022/06/04 08:09:13;;;;;;;4.97;2.35;;;;;;;20.72;48.72;100051.66;5012149;28;20054;-66
2022/06/04 08:11:39;;;;;;;5.28;2.20;;;;;;;20.92;48.67;100060.19;5012127;28;20076;-64
2022/06/04 08:14:10;;;;;;;2.83;2.20;;;;;;;20.73;48.41;100058.63;5011867;28;20083;-65
2022/06/04 08:16:40;;;;;;;2.97;1.90;;;;;;;20.75;48.99;100054.16;5011519;28;20026;-66
2022/06/04 08:19:06;;;;;;;3.15;1.95;;;;;;;20.83;49.61;100062.41;5009643;28;20074;-65
2022/06/04 08:21:34;;;;;;;3.42;2.13;;;;;;;20.51;49.14;100009.84;5011275;28;20533;-64
2022/06/04 08:24:00;;;;;;;4.03;2.40;;;;;;;20.63;48.99;100062.69;5012190;28;20034;-65
2022/06/04 08:26:26;;;;;;;5.95;2.80;;;;;;;20.66;48.16;100063.38;5012003;28;20033;-64
2022/06/04 08:28:52;;;;;;;5.20;3.17;;;;;;;20.82;48.11;100054.59;5012109;28;20075;-65
2022/06/04 08:31:18;;;;;;;3.97;2.38;;;;;;;20.99;48.82;100058.88;5007314;28;20046;-64
2022/06/04 08:33:43;;;;;;;3.78;2.20;;;;;;;21.15;47.83;100054.44;5007693;28;20037;-65
2022/06/04 08:36:12;;;;;;;4.60;2.28;;;;;;;20.65;47.49;100009.03;5008954;28;20113;-65
2022/06/04 08:38:38;;;;;;;4.15;2.35;;;;;;;21.00;49.29;100055.34;5009038;28;20058;-65
2022/06/04 08:41:07;;;;;;;8.55;7.13;;;;;;;20.46;48.39;100019.75;5007394;28;20502;-64
2022/06/04 08:44:04;;;;;;;2.65;2.40;;;;;;;20.73;49.44;100057.78;5010845;28;20029;-65
2022/06/04 08:46:51;;;;;;;7.28;5.15;;;;;;;20.75;47.32;100059.41;5010660;28;20026;-65
2022/06/04 08:49:30;;;;;;;4.35;3.00;;;;;;;20.56;46.84;100006.09;5009202;28;20403;-65
2022/06/04 08:51:58;;;;;;;2.78;2.05;;;;;;;21.07;45.41;100040.03;5009082;28;20018;-65
2022/06/04 09:00:09;;;;;;;3.28;2.35;;;;;;;21.26;44.76;100040.59;5010522;28;20045;-65
2022/06/04 09:02:55;;;;;;;3.50;2.10;;;;;;;21.27;47.52;100034.41;5010050;28;20031;-65
2022/06/04 09:05:51;;;;;;;3.78;2.50;;;;;;;20.84;47.92;99984.31;5006847;28;20065;-65
2022/06/04 09:08:42;;;;;;;3.92;1.92;;;;;;;21.17;45.80;100038.53;5007052;28;20034;-65
2022/06/04 09:11:17;;;;;;;5.90;2.28;;;;;;;21.13;45.78;100037.00;5008911;28;20053;-65
2022/06/04 09:14:17;;;;;;;6.43;2.45;;;;;;;21.08;44.66;100034.66;5011420;28;20041;-63
2022/06/04 09:16:48;;;;;;;7.22;2.22;;;;;;;21.12;45.06;99988.75;5008435;28;20045;-65
2022/06/04 09:19:18;;;;;;;2.00;1.90;;;;;;;21.40;44.27;100009.94;5011636;28;20033;-65
2022/06/04 09:21:45;;;;;;;4.75;2.55;;;;;;;21.25;45.45;99974.81;5027066;28;20097;-65
2022/06/04 09:24:11;;;;;;;2.70;1.75;;;;;;;21.50;45.81;100006.63;5013923;28;20033;-65
2022/06/04 09:26:47;;;;;;;4.18;2.42;;;;;;;21.67;45.00;100008.25;5013398;28;20072;-65
2022/06/04 09:29:24;;;;;;;2.30;2.10;;;;;;;21.91;45.75;99997.09;5011711;28;20029;-66
2022/06/04 09:31:55;;;;;;;2.67;1.80;;;;;;;22.02;44.75;99999.91;5011531;28;20380;-65
2022/06/04 09:34:29;;;;;;;2.50;2.28;;;;;;;21.81;43.56;99994.19;5010930;28;20029;-64
2022/06/04 09:36:56;;;;;;;3.60;1.80;;;;;;;21.37;45.23;99964.38;5011838;28;20429;-64
2022/06/04 09:39:30;;;;;;;5.20;2.20;;;;;;;21.52;44.27;100022.38;5013381;28;20014;-64
2022/06/04 09:42:01;;;;;;;7.55;2.47;;;;;;;21.23;42.88;99998.63;5013583;28;20439;-64
2022/06/04 09:44:29;;;;;;;3.53;1.95;;;;;;;20.69;43.42;99947.44;5013269;28;20018;-64
2022/06/04 09:47:00;;;;;;;4.78;1.98;;;;;;;20.95;44.35;99963.44;5011218;28;20112;-64
2022/06/04 09:49:42;;;;;;;4.95;2.08;;;;;;;20.98;44.44;99957.16;5010527;28;20032;-66
2022/06/04 09:52:19;;;;;;;4.43;1.88;;;;;;;20.95;43.55;99973.97;5013194;28;20554;-65
2022/06/04 09:54:58;;;;;;;3.17;1.65;;;;;;;20.97;43.96;99952.81;5003454;28;20109;-63
2022/06/04 09:57:27;;;;;;;4.45;2.33;;;;;;;21.45;43.43;100005.22;5010937;28;20030;-63
2022/06/04 09:59:56;;;;;;;3.10;2.30;;;;;;;20.93;42.77;99967.09;5013239;28;20041;-62
2022/06/04 10:02:21;;;;;;;2.20;1.70;;;;;;;20.97;43.80;99995.78;5010571;28;20026;-62
2022/06/04 10:04:49;;;;;;;4.60;2.20;;;;;;;20.90;44.43;99994.47;5013716;28;20064;-64
2022/06/04 10:07:18;;;;;;;2.70;2.00;;;;;;;20.78;44.29;99956.56;5014029;28;20026;-64
2022/06/04 10:09:58;;;;;;;4.07;2.00;;;;;;;21.33;44.79;100006.81;5014213;28;20084;-64
2022/06/04 10:15:42;;;;;;;4.15;2.17;;;;;;;21.33;44.83;99981.31;5012872;28;20037;-63
2022/06/04 10:18:18;;;;;;;3.30;1.83;;;;;;;21.58;43.07;99992.16;4994494;28;20030;-62
2022/06/04 10:21:09;;;;;;;2.92;1.92;;;;;;;21.73;44.39;99985.91;5008710;28;20494;-64
2022/06/04 10:23:44;;;;;;;3.25;2.42;;;;;;;21.62;44.06;99991.88;5013969;28;20037;-63
2022/06/04 10:26:38;;;;;;;2.17;1.92;;;;;;;21.54;43.51;99991.50;5013316;28;20069;-63
2022/06/04 10:29:23;;;;;;;3.10;2.10;;;;;;;21.48;45.49;99987.44;5014004;28;20026;-64
2022/06/04 10:31:54;;;;;;;4.15;2.38;;;;;;;21.34;46.20;99992.72;5014085;28;20029;-64
2022/06/04 10:34:28;;;;;;;;;;;;;;;21.34;47.40;99987.44;5014518;28;20050;-65
2022/06/04 10:37:00;;;;;;;2.47;1.88;;;;;;;21.30;44.73;99997.31;5013751;28;19940;-66
2022/06/04 10:39:58;;;;;;;;;;;;;;;21.30;46.10;99991.22;5014281;28;20109;-64
2022/06/04 10:42:46;;;;;;;6.57;1.98;;;;;;;21.35;47.46;99981.25;5001844;28;19964;-65
2022/06/04 10:45:27;;;;;;;5.10;1.90;;;;;;;21.39;43.91;99993.25;5005680;28;20034;-64
2022/06/04 10:48:00;;;;;;;4.25;2.13;;;;;;;21.31;43.53;99992.91;5012973;28;20018;-64
2022/06/04 10:53:33;;;;;;;2.47;1.88;;;;;;;21.21;42.62;99988.19;4994557;28;20019;-64
2022/06/04 10:56:05;;;;;;;4.78;1.92;;;;;;;21.19;42.17;99991.84;5007466;28;20095;-65
2022/06/04 10:58:36;;;;;;;;;;;;;;;21.12;43.29;99988.75;5012801;28;20755;-64
2022/06/04 11:01:05;;;;;;;4.05;2.00;;;;;;;21.16;43.12;99984.13;5011636;28;19917;-63
2022/06/04 11:04:03;;;;;;;2.22;1.85;;;;;;;21.24;43.06;99973.16;5011199;28;20050;-64
2022/06/04 11:06:33;;;;;;;4.15;1.77;;;;;;;21.46;42.54;99962.97;5012369;28;20038;-65
2022/06/04 11:09:12;;;;;;;3.83;2.20;;;;;;;21.70;43.94;99989.59;5007204;28;20035;-63
2022/06/04 11:11:43;;;;;;;2.53;2.22;;;;;;;21.58;42.90;99939.44;4998427;28;20035;-64
2022/06/04 11:14:34;;;;;;;4.80;2.53;;;;;;;21.38;42.07;99912.53;5008484;28;20044;-63
2022/06/04 11:17:29;;;;;;;2.60;1.90;;;;;;;21.73;43.51;99933.19;5012835;28;20040;-64
2022/06/04 11:20:11;;;;;;;2.97;1.90;;;;;;;21.54;40.11;99928.25;5013078;28;20026;-65
2022/06/04 11:22:40;;;;;;;3.53;2.25;;;;;;;21.96;41.79;99970.44;5012872;28;20360;-65
2022/06/04 11:25:27;;;;;;;2.38;2.10;;;;;;;21.63;41.78;99926.81;5013022;28;20165;-66
2022/06/04 11:28:15;;;;;;;4.35;2.20;;;;;;;21.32;41.29;99960.34;5011086;28;20100;-65
2022/06/04 11:30:56;;;;;;;3.30;2.17;;;;;;;21.40;43.90;99955.44;5006464;28;20037;-66
2022/06/04 11:33:27;;;;;;;4.80;2.43;;;;;;;21.49;43.07;99962.78;5000303;28;20057;-65
2022/06/04 11:36:01;;;;;;;2.72;2.33;;;;;;;21.43;42.84;99951.78;5012395;28;20030;-66
2022/06/04 11:38:36;;;;;;;3.10;2.20;;;;;;;21.58;42.73;99960.53;5007885;28;20041;-64
2022/06/04 11:41:39;;;;;;;5.88;2.17;;;;;;;21.62;44.25;99959.38;5006707;28;20022;-63
2022/06/04 11:44:18;;;;;;;1.90;1.80;;;;;;;21.58;41.60;99945.56;4984614;28;20076;-64
2022/06/04 11:47:08;;;;;;;2.85;2.10;;;;;;;21.76;43.42;99948.81;5011745;28;20200;-64
2022/06/04 11:49:42;;;;;;;3.50;2.38;;;;;;;21.81;41.82;99948.53;5012296;28;20033;-66
2022/06/04 11:52:15;;;;;;;3.65;1.80;;;;;;;21.87;41.31;99941.06;5011144;28;20101;-67
2022/06/04 11:55:21;;;;;;;4.07;1.83;;;;;;;21.77;41.68;99897.78;5010948;28;20127;-66
2022/06/04 11:58:08;;;;;;;2.00;1.80;;;;;;;22.09;40.45;99934.41;5002948;28;20423;-68
2022/06/04 12:00:40;;;;;;;3.20;2.17;;;;;;;21.91;41.46;99920.63;5011869;28;20022;-66
2022/06/04 12:03:15;;;;;;;4.70;2.40;;;;;;;21.90;42.38;99900.47;5011650;28;20037;-65
2022/06/04 12:06:12;;;;;;;4.88;2.60;;;;;;;22.19;41.06;99926.72;5011528;28;20038;-67
2022/06/04 12:08:52;;;;;;;5.90;2.53;;;;;;;22.23;41.91;99939.63;4983063;28;20102;-68